createdAt,value
2022-08-28T00:00:28.503Z,11.57
2022-08-28T00:02:59.497Z,12.05
2022-08-28T00:05:37.006Z,12.20
2022-08-28T00:08:14.647Z,13.52
2022-08-28T00:10:48.776Z,14.93
2022-08-28T00:13:27.618Z,22.42
2022-08-28T00:15:59.027Z,20.67
2022-08-28T00:18:32.618Z,9.25
2022-08-28T00:21:00.701Z,8.52
2022-08-28T00:23:42.712Z,9.63
2022-08-28T00:26:36.606Z,8.90
2022-08-28T00:31:51.328Z,8.00
2022-08-28T00:39:46.643Z,7.70
2022-08-28T00:42:14.360Z,6.40
2022-08-28T00:44:53.563Z,6.43
2022-08-28T00:47:27.670Z,6.97
2022-08-28T00:49:58.870Z,8.88
2022-08-28T00:52:29.355Z,9.90
2022-08-28T00:55:12.163Z,10.05
2022-08-28T00:57:55.184Z,10.75
2022-08-28T01:00:41.379Z,10.05
2022-08-28T01:03:12.951Z,8.57
2022-08-28T01:05:49.437Z,8.63
2022-08-28T01:08:25.253Z,8.07
2022-08-28T01:11:06.345Z,8.38
2022-08-28T01:13:34.423Z,7.30
2022-08-28T01:16:13.463Z,7.75
2022-08-28T01:18:47.006Z,7.50
2022-08-28T01:21:35.450Z,7.32
2022-08-28T01:24:10.726Z,6.35
2022-08-28T01:26:44.295Z,6.32
2022-08-28T01:29:20.597Z,6.75
2022-08-28T01:31:49.047Z,6.35
2022-08-28T01:34:16.118Z,6.38
2022-08-28T01:36:53.742Z,5.80
2022-08-28T01:39:26.723Z,6.25
2022-08-28T01:41:55.711Z,5.93
2022-08-28T01:44:27.580Z,5.82
2022-08-28T01:46:59.308Z,5.55
2022-08-28T01:49:36.536Z,6.43
2022-08-28T01:52:04.880Z,6.55
2022-08-28T01:54:37.127Z,5.82
2022-08-28T01:57:06.331Z,5.53
2022-08-28T01:59:33.484Z,5.88
2022-08-28T02:02:06.215Z,5.93
2022-08-28T02:04:36.732Z,6.53
2022-08-28T02:07:07.148Z,5.55
2022-08-28T02:09:34.283Z,5.45
2022-08-28T02:12:01.616Z,5.72
2022-08-28T02:14:34.829Z,5.70
2022-08-28T02:17:05.067Z,5.32
2022-08-28T02:19:32.356Z,4.70
2022-08-28T02:22:04.155Z,5.57
2022-08-28T02:24:43.250Z,5.50
2022-08-28T02:27:13.427Z,5.30
2022-08-28T02:29:43.990Z,6.40
2022-08-28T02:32:17.080Z,5.47
2022-08-28T02:34:49.718Z,5.97
2022-08-28T02:37:29.277Z,6.30
2022-08-28T02:40:05.631Z,6.00
2022-08-28T02:42:33.947Z,6.43
2022-08-28T02:45:03.595Z,6.28
2022-08-28T02:47:36.675Z,6.45
2022-08-28T02:50:13.011Z,6.78
2022-08-28T02:52:52.265Z,6.72
2022-08-28T02:55:22.361Z,6.53
2022-08-28T02:57:54.775Z,6.85
2022-08-28T03:00:27.819Z,6.38
2022-08-28T03:02:57.933Z,5.95
2022-08-28T03:05:34.563Z,6.35
2022-08-28T03:08:04.385Z,6.72
2022-08-28T03:10:35.397Z,6.75
2022-08-28T03:13:11.442Z,6.45
2022-08-28T03:15:53.676Z,6.20
2022-08-28T03:18:28.716Z,6.13
2022-08-28T03:20:56.116Z,6.90
2022-08-28T03:23:28.912Z,6.38
2022-08-28T03:26:03.450Z,6.43
2022-08-28T03:28:34.202Z,7.10
2022-08-28T03:31:01.645Z,6.72
2022-08-28T03:33:31.865Z,6.68
2022-08-28T03:36:04.628Z,6.75
2022-08-28T03:38:35.341Z,6.97
2022-08-28T03:41:05.476Z,6.50
2022-08-28T03:43:35.961Z,6.85
2022-08-28T03:46:05.456Z,6.97
2022-08-28T03:48:46.787Z,7.55
2022-08-28T03:51:22.464Z,7.82
2022-08-28T03:54:01.828Z,6.93
2022-08-28T03:56:30.437Z,6.95
2022-08-28T03:59:04.903Z,6.65
2022-08-28T04:01:36.080Z,6.82
2022-08-28T04:04:17.793Z,6.53
2022-08-28T04:06:45.619Z,6.68
2022-08-28T04:09:21.784Z,7.00
2022-08-28T04:11:52.684Z,6.28
2022-08-28T04:14:25.630Z,7.13
2022-08-28T04:17:01.642Z,5.85
2022-08-28T04:19:40.787Z,6.43
2022-08-28T04:22:11.522Z,6.43
2022-08-28T04:24:43.178Z,6.10
2022-08-28T04:27:10.448Z,6.75
2022-08-28T04:29:38.199Z,6.20
2022-08-28T04:32:08.347Z,6.65
2022-08-28T04:34:40.700Z,7.22
2022-08-28T04:37:13.292Z,6.55
2022-08-28T04:39:49.724Z,6.60
2022-08-28T04:42:16.885Z,7.30
2022-08-28T04:44:46.957Z,7.07
2022-08-28T04:47:16.541Z,7.57
2022-08-28T04:49:51.971Z,7.20
2022-08-28T04:52:19.233Z,7.20
2022-08-28T04:54:46.453Z,6.78
2022-08-28T04:57:22.021Z,6.72
2022-08-28T04:59:52.326Z,6.53
2022-08-28T05:02:19.529Z,7.20
2022-08-28T05:04:47.503Z,7.63
2022-08-28T05:07:17.390Z,7.05
2022-08-28T05:09:49.877Z,7.20
2022-08-28T05:12:19.924Z,7.55
2022-08-28T05:14:52.799Z,6.88
2022-08-28T05:17:22.663Z,6.90
2022-08-28T05:19:56.714Z,6.88
2022-08-28T05:22:23.931Z,6.70
2022-08-28T05:24:51.317Z,6.38
2022-08-28T05:27:20.363Z,6.53
2022-08-28T05:30:02.155Z,5.75
2022-08-28T05:32:32.360Z,6.40
2022-08-28T05:35:00.548Z,6.13
2022-08-28T05:37:27.864Z,6.20
2022-08-28T05:40:03.937Z,6.00
2022-08-28T05:42:34.868Z,5.70
2022-08-28T05:45:14.389Z,5.43
2022-08-28T05:47:47.255Z,5.95
2022-08-28T05:50:16.403Z,5.22
2022-08-28T05:52:53.444Z,5.50
2022-08-28T05:55:25.992Z,5.20
2022-08-28T05:57:53.133Z,5.07
2022-08-28T06:00:31.502Z,5.15
2022-08-28T06:03:02.691Z,5.38
2022-08-28T06:05:36.461Z,5.45
2022-08-28T06:08:12.504Z,5.53
2022-08-28T06:10:51.021Z,4.50
2022-08-28T06:13:24.703Z,4.47
2022-08-28T06:15:51.847Z,4.68
2022-08-28T06:18:19.183Z,4.63
2022-08-28T06:20:53.214Z,4.57
2022-08-28T06:23:27.919Z,4.88
2022-08-28T06:26:11.107Z,4.80
2022-08-28T06:28:40.322Z,4.57
2022-08-28T06:31:24.646Z,4.40
2022-08-28T06:34:04.191Z,4.40
2022-08-28T06:36:37.314Z,4.18
2022-08-28T06:39:06.053Z,3.63
2022-08-28T06:41:41.345Z,4.57
2022-08-28T06:44:13.982Z,3.63
2022-08-28T06:46:41.967Z,4.33
2022-08-28T06:49:15.326Z,4.20
2022-08-28T06:51:45.164Z,4.25
2022-08-28T06:54:22.189Z,3.83
2022-08-28T06:57:02.243Z,3.72
2022-08-28T06:59:32.384Z,4.10
2022-08-28T07:02:03.125Z,3.60
2022-08-28T07:04:32.799Z,3.10
2022-08-28T07:07:16.120Z,3.30
2022-08-28T07:10:01.534Z,3.47
2022-08-28T07:12:31.858Z,3.58
2022-08-28T07:15:05.134Z,3.75
2022-08-28T07:17:36.808Z,3.30
2022-08-28T07:20:07.539Z,3.58
2022-08-28T07:22:43.750Z,3.53
2022-08-28T07:25:13.970Z,3.38
2022-08-28T07:27:46.793Z,3.88
2022-08-28T07:30:19.649Z,3.28
2022-08-28T07:32:57.232Z,3.33
2022-08-28T07:35:31.915Z,3.42
2022-08-28T07:38:04.133Z,3.72
2022-08-28T07:40:37.441Z,3.13
2022-08-28T07:43:23.968Z,3.75
2022-08-28T07:46:01.054Z,3.22
2022-08-28T07:48:28.402Z,3.97
2022-08-28T07:51:00.880Z,3.58
2022-08-28T07:53:36.481Z,3.37
2022-08-28T07:56:05.172Z,3.40
2022-08-28T07:58:36.655Z,3.53
2022-08-28T08:01:03.900Z,3.40
2022-08-28T08:03:42.655Z,3.00
2022-08-28T08:06:14.581Z,3.33
2022-08-28T08:08:41.730Z,3.55
2022-08-28T08:11:18.620Z,3.65
2022-08-28T08:13:48.205Z,4.18
2022-08-28T08:16:23.755Z,3.88
2022-08-28T08:18:52.560Z,3.10
2022-08-28T08:21:30.060Z,3.00
2022-08-28T08:24:02.786Z,3.25
2022-08-28T08:26:32.650Z,2.80
2022-08-28T08:29:03.203Z,3.50
2022-08-28T08:31:33.902Z,2.88
2022-08-28T08:34:12.210Z,2.67
2022-08-28T08:36:39.679Z,3.92
2022-08-28T08:39:09.695Z,3.25
2022-08-28T08:41:49.209Z,3.58
2022-08-28T08:44:22.000Z,3.10
2022-08-28T08:47:14.630Z,3.30
2022-08-28T08:49:53.726Z,3.30
2022-08-28T08:52:35.116Z,3.55
2022-08-28T08:55:17.537Z,3.67
2022-08-28T08:57:49.339Z,3.40
2022-08-28T09:00:22.275Z,3.83
2022-08-28T09:03:04.740Z,3.25
2022-08-28T09:06:02.211Z,3.53
2022-08-28T09:08:50.144Z,3.88
2022-08-28T09:11:57.217Z,3.80
2022-08-28T09:15:00.859Z,4.15
2022-08-28T09:17:51.153Z,3.63
2022-08-28T09:20:33.255Z,3.80
2022-08-28T09:23:02.176Z,3.28
2022-08-28T09:25:54.957Z,3.70
2022-08-28T09:28:31.088Z,3.28
2022-08-28T09:31:08.252Z,3.38
2022-08-28T09:33:54.029Z,3.90
2022-08-28T09:36:26.743Z,2.97
2022-08-28T09:39:08.623Z,3.30
2022-08-28T09:42:26.374Z,3.67
2022-08-28T09:44:59.782Z,3.38
2022-08-28T09:47:48.779Z,3.20
2022-08-28T09:50:38.930Z,3.80
2022-08-28T09:53:11.892Z,3.47
2022-08-28T09:55:57.711Z,2.95
2022-08-28T09:58:36.053Z,3.15
2022-08-28T10:01:24.521Z,3.40
2022-08-28T10:03:56.836Z,3.42
2022-08-28T10:06:37.809Z,3.72
2022-08-28T10:09:25.464Z,3.20
2022-08-28T10:12:14.495Z,3.40
2022-08-28T10:15:07.680Z,3.42
2022-08-28T10:18:09.971Z,3.28
2022-08-28T10:21:09.797Z,3.42
2022-08-28T10:24:14.307Z,3.50
2022-08-28T10:27:15.971Z,3.47
2022-08-28T10:30:13.331Z,3.00
2022-08-28T10:33:20.561Z,3.10
2022-08-28T10:36:09.657Z,3.70
2022-08-28T10:39:14.893Z,3.50
2022-08-28T10:42:02.242Z,3.08
2022-08-28T10:45:04.769Z,3.35
2022-08-28T10:47:38.496Z,3.47
2022-08-28T10:50:21.732Z,3.47
2022-08-28T10:53:01.072Z,3.08
2022-08-28T10:56:03.219Z,3.55
2022-08-28T10:58:47.294Z,3.72
2022-08-28T11:01:32.061Z,3.47
2022-08-28T11:04:08.240Z,3.30
2022-08-28T11:06:58.262Z,3.55
2022-08-28T11:09:47.417Z,4.07
2022-08-28T11:12:22.227Z,4.10
2022-08-28T11:15:06.531Z,3.30
2022-08-28T11:17:56.859Z,3.45
2022-08-28T11:20:30.811Z,3.50
2022-08-28T11:23:15.786Z,3.60
2022-08-28T11:26:09.622Z,3.08
2022-08-28T11:29:01.209Z,2.92
2022-08-28T11:31:37.337Z,3.55
2022-08-28T11:34:13.297Z,2.78
2022-08-28T11:37:20.185Z,3.13
2022-08-28T11:39:55.168Z,3.08
2022-08-28T11:46:05.568Z,3.50
2022-08-28T11:49:02.924Z,3.70
2022-08-28T11:52:19.851Z,3.30
2022-08-28T11:55:24.932Z,3.47
2022-08-28T12:01:01.994Z,3.05
2022-08-28T12:04:08.440Z,4.40
2022-08-28T12:07:04.857Z,3.83
2022-08-28T12:09:54.255Z,3.00
2022-08-28T12:12:24.211Z,3.22
2022-08-28T12:15:07.981Z,3.30
2022-08-28T12:17:47.864Z,3.05
2022-08-28T12:20:45.449Z,3.00
2022-08-28T12:26:57.036Z,2.88
2022-08-28T12:29:37.166Z,2.85
2022-08-28T12:32:29.000Z,2.67
2022-08-28T12:35:25.317Z,3.10
2022-08-28T12:37:58.057Z,4.00
2022-08-28T12:40:42.069Z,3.90
2022-08-28T12:43:25.562Z,3.65
2022-08-28T12:46:40.737Z,3.17
2022-08-28T12:49:39.532Z,3.85
2022-08-28T12:52:28.335Z,4.10
2022-08-28T12:55:07.068Z,3.53
2022-08-28T12:58:03.086Z,3.50
2022-08-28T13:01:06.301Z,3.17
2022-08-28T13:04:14.512Z,3.60
2022-08-28T13:06:47.119Z,3.08
2022-08-28T13:09:55.911Z,3.00
2022-08-28T13:12:54.960Z,2.80
2022-08-28T13:16:04.986Z,2.60
2022-08-28T13:18:59.532Z,2.37
2022-08-28T13:21:37.047Z,2.28
2022-08-28T13:24:35.612Z,2.60
2022-08-28T13:27:39.913Z,2.40
2022-08-28T13:30:29.613Z,2.42
2022-08-28T13:33:02.471Z,2.30
2022-08-28T13:35:37.942Z,2.72
2022-08-28T13:38:13.360Z,3.00
2022-08-28T13:41:00.510Z,3.00
2022-08-28T13:43:41.997Z,3.05
2022-08-28T13:46:15.100Z,2.95
2022-08-28T13:48:53.644Z,2.53
2022-08-28T13:51:29.463Z,3.30
2022-08-28T13:53:59.041Z,2.85
2022-08-28T13:56:33.753Z,3.38
2022-08-28T13:59:07.003Z,3.45
2022-08-28T14:02:01.567Z,3.00
2022-08-28T14:04:34.481Z,3.00
2022-08-28T14:07:01.480Z,3.20
2022-08-28T14:09:38.163Z,3.33
2022-08-28T14:12:33.058Z,3.10
2022-08-28T14:15:01.801Z,3.35
2022-08-28T14:17:43.588Z,3.28
2022-08-28T14:20:11.879Z,3.58
2022-08-28T14:22:46.054Z,3.88
2022-08-28T14:25:16.515Z,2.78
2022-08-28T14:28:06.962Z,3.33
2022-08-28T14:30:45.554Z,3.08
2022-08-28T14:33:20.745Z,3.08
2022-08-28T14:35:49.099Z,3.38
2022-08-28T14:38:17.000Z,3.05
2022-08-28T14:40:45.484Z,3.10
2022-08-28T14:43:20.029Z,3.15
2022-08-28T14:45:53.168Z,3.17
2022-08-28T14:48:24.166Z,3.25
2022-08-28T14:50:51.696Z,3.85
2022-08-28T14:53:18.938Z,3.50
2022-08-28T14:55:49.498Z,3.58
2022-08-28T14:58:18.591Z,3.15
2022-08-28T15:00:51.237Z,3.25
2022-08-28T15:03:22.225Z,3.53
2022-08-28T15:06:07.206Z,3.35
2022-08-28T15:08:39.702Z,3.83
2022-08-28T15:11:08.713Z,3.60
2022-08-28T15:13:38.617Z,3.03
2022-08-28T15:16:10.557Z,3.47
2022-08-28T15:18:51.782Z,2.97
2022-08-28T15:21:29.966Z,3.05
2022-08-28T15:24:18.729Z,3.72
2022-08-28T15:26:53.741Z,3.10
2022-08-28T15:29:21.225Z,3.17
2022-08-28T15:31:50.386Z,2.90
2022-08-28T15:34:31.113Z,3.45
2022-08-28T15:37:03.690Z,3.70
2022-08-28T15:39:56.954Z,3.30
2022-08-28T15:42:36.041Z,3.75
2022-08-28T15:45:09.478Z,3.53
2022-08-28T15:47:37.350Z,3.40
2022-08-28T15:50:09.331Z,3.40
2022-08-28T15:52:43.485Z,3.22
2022-08-28T15:55:13.457Z,3.15
2022-08-28T15:57:40.534Z,3.20
2022-08-28T16:00:11.563Z,3.22
2022-08-28T16:02:44.836Z,3.85
2022-08-28T16:05:14.933Z,3.47
2022-08-28T16:07:42.389Z,3.10
2022-08-28T16:10:10.155Z,3.25
2022-08-28T16:12:47.882Z,3.38
2022-08-28T16:15:34.438Z,3.47
2022-08-28T16:18:18.526Z,3.60
2022-08-28T16:21:11.956Z,2.90
2022-08-28T16:27:13.206Z,2.65
2022-08-28T16:30:44.005Z,2.80
2022-08-28T16:39:45.456Z,2.55
2022-08-28T16:45:53.219Z,3.15
2022-08-28T16:48:27.008Z,2.90
2022-08-28T16:50:57.092Z,2.97
2022-08-28T16:53:27.100Z,2.97
2022-08-28T16:55:59.419Z,2.78
2022-08-28T16:58:33.856Z,3.08
2022-08-28T17:01:02.109Z,2.83
2022-08-28T17:03:32.199Z,2.70
2022-08-28T17:06:06.486Z,2.90
2022-08-28T17:08:39.601Z,3.10
2022-08-28T17:11:10.573Z,3.58
2022-08-28T17:13:47.017Z,2.90
2022-08-28T17:16:57.027Z,3.30
2022-08-28T17:19:38.311Z,3.08
2022-08-28T17:22:27.827Z,2.80
2022-08-28T17:24:58.611Z,2.47
2022-08-28T17:27:32.422Z,2.78
2022-08-28T17:30:07.859Z,3.47
2022-08-28T17:32:37.537Z,3.72
2022-08-28T17:35:12.045Z,3.63
2022-08-28T17:37:45.811Z,3.50
2022-08-28T17:40:19.391Z,3.83
2022-08-28T17:42:54.736Z,3.42
2022-08-28T17:45:24.776Z,3.78
2022-08-28T17:47:57.802Z,3.53
2022-08-28T17:50:24.975Z,3.30
2022-08-28T17:52:56.047Z,3.90
2022-08-28T17:55:23.330Z,3.33
2022-08-28T17:57:59.792Z,2.88
2022-08-28T18:00:35.068Z,3.60
2022-08-28T18:03:08.937Z,3.40
2022-08-28T18:05:41.470Z,3.03
2022-08-28T18:08:11.189Z,3.35
2022-08-28T18:10:40.970Z,2.97
2022-08-28T18:13:10.924Z,3.08
2022-08-28T18:15:43.409Z,3.20
2022-08-28T18:18:17.988Z,3.65
2022-08-28T18:20:46.416Z,3.30
2022-08-28T18:23:13.942Z,4.10
2022-08-28T18:25:50.591Z,4.00
2022-08-28T18:28:24.628Z,3.58
2022-08-28T18:33:27.859Z,3.70
2022-08-28T18:36:02.986Z,3.72
2022-08-28T18:38:35.105Z,3.50
2022-08-28T18:41:07.601Z,4.13
2022-08-28T18:43:40.164Z,3.22
2022-08-28T18:46:13.682Z,3.87
2022-08-28T18:51:12.225Z,3.85
2022-08-28T18:53:42.428Z,3.75
2022-08-28T18:56:12.470Z,3.90
2022-08-28T18:58:45.132Z,3.53
2022-08-28T19:01:14.317Z,4.22
2022-08-28T19:03:41.352Z,3.78
2022-08-28T19:06:16.164Z,3.78
2022-08-28T19:08:52.112Z,4.00
2022-08-28T19:11:25.164Z,4.10
2022-08-28T19:13:55.285Z,4.22
2022-08-28T19:16:22.523Z,4.28
2022-08-28T19:18:52.956Z,3.85
2022-08-28T19:21:20.360Z,3.90
2022-08-28T19:23:56.141Z,4.10
2022-08-28T19:26:25.109Z,4.38
2022-08-28T19:28:55.657Z,3.75
2022-08-28T19:31:27.218Z,3.88
2022-08-28T19:33:54.770Z,4.57
2022-08-28T19:36:27.344Z,3.88
2022-08-28T19:39:00.730Z,4.00
2022-08-28T19:41:30.077Z,4.05
2022-08-28T19:43:57.143Z,4.13
2022-08-28T19:46:29.296Z,4.32
2022-08-28T19:49:21.276Z,4.55
2022-08-28T19:51:57.548Z,4.63
2022-08-28T19:54:33.745Z,4.13
2022-08-28T19:57:01.455Z,3.92
2022-08-28T19:59:29.235Z,4.80
2022-08-28T20:01:59.820Z,4.60
2022-08-28T20:04:39.559Z,4.22
2022-08-28T20:07:06.781Z,4.68
2022-08-28T20:09:43.144Z,4.05
2022-08-28T20:12:10.291Z,4.20
2022-08-28T20:14:42.605Z,4.72
2022-08-28T20:17:15.096Z,4.43
2022-08-28T20:19:42.247Z,4.78
2022-08-28T20:22:12.734Z,4.60
2022-08-28T20:24:55.843Z,4.63
2022-08-28T20:27:25.931Z,4.20
2022-08-28T20:29:55.185Z,4.13
2022-08-28T20:32:24.619Z,4.25
2022-08-28T20:34:54.411Z,3.83
2022-08-28T20:37:24.418Z,4.00
2022-08-28T20:40:04.451Z,3.65
2022-08-28T20:42:38.518Z,4.20
2022-08-28T20:45:12.338Z,3.83
2022-08-28T20:47:55.100Z,3.80
2022-08-28T20:50:24.846Z,4.00
2022-08-28T20:52:51.955Z,3.97
2022-08-28T20:55:25.323Z,3.72
2022-08-28T20:57:55.502Z,4.07
2022-08-28T21:00:27.938Z,4.72
2022-08-28T21:02:54.993Z,3.92
2022-08-28T21:05:28.709Z,4.15
2022-08-28T21:07:58.697Z,4.20
2022-08-28T21:10:28.979Z,4.60
2022-08-28T21:13:03.412Z,4.70
2022-08-28T21:15:39.810Z,3.92
2022-08-28T21:18:16.065Z,3.95
2022-08-28T21:20:46.333Z,3.75
2022-08-28T21:23:16.381Z,3.85
2022-08-28T21:25:43.470Z,3.63
2022-08-28T21:28:13.338Z,4.47
2022-08-28T21:30:44.227Z,4.93
2022-08-28T21:33:14.511Z,4.57
2022-08-28T21:35:42.044Z,4.45
2022-08-28T21:38:18.103Z,5.38
2022-08-28T21:40:48.138Z,5.75
2022-08-28T21:43:15.230Z,5.05
2022-08-28T21:45:47.565Z,6.28
2022-08-28T21:48:20.723Z,6.93
2022-08-28T21:51:03.353Z,6.40
2022-08-28T21:53:37.031Z,7.10
2022-08-28T21:56:10.801Z,7.20
2022-08-28T21:58:38.761Z,8.13
2022-08-28T22:01:17.082Z,7.53
2022-08-28T22:03:57.671Z,8.25
2022-08-28T22:06:27.493Z,8.57
2022-08-28T22:08:58.101Z,8.43
2022-08-28T22:11:27.293Z,7.55
2022-08-28T22:13:58.053Z,8.15
2022-08-28T22:16:26.489Z,8.00
2022-08-28T22:18:59.784Z,9.10
2022-08-28T22:21:46.411Z,8.10
2022-08-28T22:24:13.711Z,8.50
2022-08-28T22:26:44.536Z,7.80
2022-08-28T22:31:50.438Z,6.90
2022-08-28T22:34:28.638Z,7.93
2022-08-28T22:37:02.133Z,8.32
2022-08-28T22:39:31.304Z,7.63
2022-08-28T22:41:58.332Z,7.60
2022-08-28T22:44:31.050Z,7.43
2022-08-28T22:47:07.458Z,7.55
2022-08-28T22:49:40.225Z,7.80
2022-08-28T22:52:10.915Z,8.37
2022-08-28T22:54:47.196Z,7.32
2022-08-28T22:57:22.864Z,8.48
2022-08-28T23:00:01.601Z,7.68
2022-08-28T23:02:34.784Z,7.78
2022-08-28T23:05:09.273Z,8.27
2022-08-28T23:07:41.073Z,8.45
2022-08-28T23:10:15.530Z,7.90
2022-08-28T23:13:01.237Z,9.25
2022-08-28T23:15:28.319Z,8.65
2022-08-28T23:17:55.357Z,8.30
2022-08-28T23:20:25.309Z,9.30
2022-08-28T23:22:58.266Z,9.60
2022-08-28T23:25:30.179Z,9.02
2022-08-28T23:27:57.518Z,7.97
2022-08-28T23:30:27.955Z,8.50
2022-08-28T23:32:58.552Z,7.85
2022-08-28T23:35:37.444Z,8.18
2022-08-28T23:38:07.542Z,7.40
2022-08-28T23:40:37.543Z,8.32
2022-08-28T23:43:07.494Z,8.80
2022-08-28T23:45:41.985Z,8.48
2022-08-28T23:48:12.403Z,7.80
2022-08-28T23:50:44.523Z,7.95
2022-08-28T23:53:11.932Z,7.93
2022-08-28T23:55:42.377Z,9.35
2022-08-28T23:58:10.139Z,8.30
